Time;durP1;ratioP1;P1;durP2;ratioP2;P2;SDS_P1;SDS_P2;PMS_P1;PMS_P2;Temp;Humidity;BMP_temperature;BMP_pressure;BME280_temperature;BME280_humidity;BME280_pressure;Samples;Min_cycle;Max_cycle;Signal;HPM_P1;HPM_P2
2021/01/22 00:02:13;;;;;;;1.80;1.70;;;7.50;85.40;;;;;;5014277;28;20042;-90
2021/01/22 00:04:39;;;;;;;2.10;1.90;;;7.30;85.40;;;;;;5020019;28;20025;-90
2021/01/22 00:07:05;;;;;;;2.42;2.22;;;7.20;85.40;;;;;;5031198;28;20021;-90
2021/01/22 00:09:30;;;;;;;2.05;1.85;;;7.10;85.50;;;;;;5027058;28;20030;-90
2021/01/22 00:11:56;;;;;;;2.13;1.98;;;7.00;85.70;;;;;;5017387;28;20700;-90
2021/01/22 00:14:22;;;;;;;2.30;2.00;;;6.90;85.60;;;;;;5016172;28;20017;-89
2021/01/22 00:16:47;;;;;;;2.97;2.20;;;6.80;85.50;;;;;;5031131;28;20046;-89
2021/01/22 00:19:13;;;;;;;2.25;1.90;;;6.60;85.40;;;;;;5036454;28;20093;-89
2021/01/22 00:21:39;;;;;;;1.80;1.70;;;6.60;85.50;;;;;;5013997;28;20030;-89
2021/01/22 00:24:05;;;;;;;2.00;1.83;;;6.50;85.50;;;;;;5025621;28;20029;-87
2021/01/22 00:26:30;;;;;;;1.67;1.58;;;6.40;85.60;;;;;;5021496;28;20041;-89
2021/01/22 00:28:56;;;;;;;1.80;1.70;;;6.20;85.50;;;;;;5005118;28;20034;-88
2021/01/22 00:31:22;;;;;;;1.60;1.50;;;6.30;85.60;;;;;;5006689;28;20021;-89
2021/01/22 00:33:47;;;;;;;1.70;1.60;;;6.30;85.60;;;;;;5003162;28;20021;-88
2021/01/22 00:36:13;;;;;;;1.80;1.70;;;6.20;85.50;;;;;;5006073;28;20026;-90
2021/01/22 00:38:40;;;;;;;1.60;1.50;;;6.10;85.30;;;;;;5012476;28;20046;-89
2021/01/22 00:41:06;;;;;;;1.50;1.40;;;6.00;85.40;;;;;;5009737;28;20068;-90
2021/01/22 00:43:32;;;;;;;1.55;1.45;;;6.00;85.50;;;;;;5007172;28;20480;-90
2021/01/22 00:45:57;;;;;;;1.30;1.20;;;6.00;85.40;;;;;;5007062;28;20059;-90
2021/01/22 00:48:23;;;;;;;1.77;1.30;;;5.90;85.20;;;;;;5009816;28;20112;-90
2021/01/22 00:50:49;;;;;;;1.67;1.00;;;5.80;85.20;;;;;;5009295;28;20025;-90
2021/01/22 00:53:15;;;;;;;1.08;1.00;;;5.80;85.20;;;;;;5003644;28;20072;-90
2021/01/22 00:55:40;;;;;;;1.10;1.00;;;5.80;85.00;;;;;;5010097;28;20104;-90
2021/01/22 00:58:06;;;;;;;1.15;1.10;;;5.70;84.90;;;;;;5010528;28;20038;-90
2021/01/22 01:00:32;;;;;;;1.00;1.00;;;5.60;84.90;;;;;;5009740;28;20029;-90
2021/01/22 01:02:58;;;;;;;1.00;1.00;;;5.60;84.90;;;;;;5004642;28;20018;-91
2021/01/22 01:05:23;;;;;;;1.02;0.90;;;5.50;84.80;;;;;;5003122;28;20040;-91
2021/01/22 01:07:49;;;;;;;0.80;0.80;;;5.50;84.90;;;;;;5010787;28;20103;-91
2021/01/22 01:10:15;;;;;;;1.27;1.00;;;5.50;84.90;;;;;;5009014;28;20168;-90
2021/01/22 01:12:40;;;;;;;2.65;1.60;;;5.50;84.90;;;;;;4999930;28;20015;-90
2021/01/22 01:15:08;;;;;;;1.95;1.25;;;5.40;84.70;;;;;;5004128;28;20056;-90
2021/01/22 01:17:36;;;;;;;1.30;1.20;;;5.40;84.80;;;;;;5009512;28;20022;-90
2021/01/22 01:20:19;;;;;;;1.00;1.00;;;5.50;84.90;;;;;;5006853;28;20026;-90
2021/01/22 01:22:47;;;;;;;1.17;1.08;;;5.40;84.80;;;;;;5005822;28;20076;-89
2021/01/22 01:25:13;;;;;;;1.50;1.40;;;5.40;84.80;;;;;;5007421;28;20065;-89
2021/01/22 01:27:39;;;;;;;1.20;1.02;;;5.40;84.70;;;;;;5006513;28;20048;-91
2021/01/22 01:30:05;;;;;;;1.20;1.13;;;5.50;84.90;;;;;;5007435;28;20040;-91
2021/01/22 01:32:31;;;;;;;1.48;1.38;;;5.50;84.80;;;;;;4998667;28;20122;-89
2021/01/22 01:34:57;;;;;;;1.25;1.15;;;5.50;84.70;;;;;;5005441;28;20127;-89
2021/01/22 01:37:22;;;;;;;1.30;1.20;;;5.50;84.60;;;;;;4998471;28;20045;-89
2021/01/22 01:39:48;;;;;;;1.23;1.08;;;5.60;84.70;;;;;;4993758;28;20106;-89
2021/01/22 01:42:20;;;;;;;1.25;1.10;;;5.50;84.70;;;;;;5009992;28;20030;-89
2021/01/22 01:44:49;;;;;;;1.60;1.30;;;5.60;84.70;;;;;;5026203;28;20065;-89
2021/01/22 01:47:17;;;;;;;1.33;1.20;;;5.50;84.60;;;;;;5016367;28;20021;-88
2021/01/22 01:49:43;;;;;;;1.60;1.38;;;5.50;84.50;;;;;;5022677;28;20676;-88
2021/01/22 01:52:09;;;;;;;1.42;1.30;;;5.50;84.60;;;;;;5018805;28;20026;-89
2021/01/22 01:54:35;;;;;;;1.58;1.33;;;5.50;84.50;;;;;;5029346;28;20041;-89
2021/01/22 01:57:01;;;;;;;1.33;1.20;;;5.70;84.60;;;;;;5027773;28;20029;-90
2021/01/22 01:59:27;;;;;;;1.25;1.15;;;5.50;84.50;;;;;;5011962;28;20025;-88
2021/01/22 02:01:53;;;;;;;1.73;1.20;;;5.60;85.10;;;;;;5010849;28;20026;-89
2021/01/22 02:04:19;;;;;;;1.10;1.00;;;5.60;84.50;;;;;;5011704;28;20041;-87
2021/01/22 02:06:45;;;;;;;1.67;1.00;;;5.60;84.40;;;;;;5011834;28;20017;-88
2021/01/22 02:09:10;;;;;;;1.38;1.27;;;5.60;84.30;;;;;;5012700;28;20060;-88
2021/01/22 02:11:36;;;;;;;1.10;1.00;;;5.60;84.40;;;;;;5013383;28;20088;-89
2021/01/22 02:14:03;;;;;;;0.90;0.90;;;5.70;84.40;;;;;;5012216;28;20030;-88
2021/01/22 02:16:31;;;;;;;1.98;1.50;;;5.70;84.40;;;;;;5012451;28;20029;-86
2021/01/22 02:18:57;;;;;;;1.40;1.30;;;5.80;84.30;;;;;;5006438;28;20030;-89
2021/01/22 02:21:30;;;;;;;2.00;1.42;;;5.70;84.30;;;;;;5006555;28;20514;-89
2021/01/22 02:24:01;;;;;;;;;;;5.80;84.20;;;;;;5012494;28;20034;-89
2021/01/22 02:26:48;;;;;;;1.65;1.55;;;5.80;84.10;;;;;;5009742;28;20103;-88
2021/01/22 02:29:15;;;;;;;2.42;1.70;;;5.70;84.20;;;;;;5004442;28;20085;-89
2021/01/22 02:31:44;;;;;;;2.05;1.70;;;5.70;84.20;;;;;;5014347;28;20032;-89
2021/01/22 02:34:11;;;;;;;2.00;1.75;;;5.70;84.30;;;;;;5012872;28;20041;-89
2021/01/22 02:36:40;;;;;;;2.22;2.03;;;5.70;84.30;;;;;;5012734;28;20551;-89
2021/01/22 02:39:09;;;;;;;2.50;2.20;;;5.80;84.30;;;;;;5011924;28;20030;-89
2021/01/22 02:41:37;;;;;;;2.83;2.30;;;5.70;84.30;;;;;;5011944;28;20018;-88
2021/01/22 02:44:04;;;;;;;2.28;2.08;;;5.80;84.40;;;;;;5011456;28;20098;-88
2021/01/22 02:46:31;;;;;;;2.08;1.83;;;5.80;84.30;;;;;;5012393;28;20029;-88
2021/01/22 02:48:58;;;;;;;1.67;1.58;;;5.80;84.20;;;;;;5014848;28;20713;-88
2021/01/22 02:51:24;;;;;;;2.90;2.35;;;5.80;84.20;;;;;;5008733;28;20037;-89
2021/01/22 02:53:50;;;;;;;3.90;2.90;;;5.80;84.10;;;;;;5012406;28;20388;-89
2021/01/22 02:56:34;;;;;;;3.00;2.40;;;5.80;84.10;;;;;;5007618;28;20030;-89
2021/01/22 02:59:24;;;;;;;3.05;2.45;;;5.80;84.30;;;;;;5011981;28;20072;-88
2021/01/22 03:02:02;;;;;;;2.72;2.30;;;5.70;84.30;;;;;;5010128;28;20030;-88
2021/01/22 03:04:31;;;;;;;3.65;2.85;;;5.70;84.30;;;;;;5005634;28;20033;-89
2021/01/22 03:07:00;;;;;;;5.00;3.38;;;5.70;84.30;;;;;;5007690;28;20026;-89
2021/01/22 03:09:33;;;;;;;4.30;3.25;;;5.70;84.30;;;;;;5013298;28;20046;-89
2021/01/22 03:12:03;;;;;;;4.63;3.95;;;5.60;84.40;;;;;;5000535;28;20091;-88
2021/01/22 03:14:33;;;;;;;6.28;4.28;;;5.70;84.40;;;;;;5003171;28;20026;-89
2021/01/22 03:16:59;;;;;;;4.38;3.40;;;5.60;84.40;;;;;;5007838;28;20022;-89
2021/01/22 03:19:24;;;;;;;4.93;3.40;;;5.70;84.60;;;;;;5007377;28;20495;-89
2021/01/22 03:21:50;;;;;;;4.30;3.33;;;5.60;84.50;;;;;;5012619;28;20044;-89
2021/01/22 03:24:16;;;;;;;3.47;2.80;;;5.50;84.50;;;;;;5015196;28;20038;-89
2021/01/22 03:26:41;;;;;;;5.75;3.92;;;5.60;84.60;;;;;;5013759;28;20380;-89
2021/01/22 03:29:07;;;;;;;5.10;4.28;;;5.60;84.60;;;;;;5033268;28;20034;-89
2021/01/22 03:31:33;;;;;;;4.20;3.25;;;5.60;84.60;;;;;;5012864;28;20029;-89
2021/01/22 03:33:58;;;;;;;5.00;3.90;;;5.70;84.60;;;;;;5010186;28;20042;-90
2021/01/22 03:36:48;;;;;;;5.45;3.70;;;5.60;84.50;;;;;;5007781;28;20029;-89
2021/01/22 03:39:12;;;;;;;6.60;4.55;;;5.50;84.50;;;;;;5012128;28;20040;-90
2021/01/22 03:41:38;;;;;;;5.78;3.55;;;5.60;84.60;;;;;;5013019;28;20492;-89
2021/01/22 03:44:04;;;;;;;6.47;4.25;;;5.50;84.50;;;;;;5008819;28;20113;-89
2021/01/22 03:46:29;;;;;;;4.10;3.20;;;5.50;84.50;;;;;;5011710;28;20549;-89
2021/01/22 03:48:55;;;;;;;3.50;3.10;;;5.50;84.50;;;;;;5010450;28;20030;-89
2021/01/22 03:51:21;;;;;;;3.45;2.83;;;5.50;84.50;;;;;;5007686;28;20068;-89
2021/01/22 03:53:46;;;;;;;3.85;2.50;;;5.50;84.50;;;;;;5010769;28;20533;-89
2021/01/22 03:56:12;;;;;;;3.20;2.58;;;5.60;84.60;;;;;;5004063;28;20048;-89
2021/01/22 03:58:37;;;;;;;3.53;2.10;;;5.50;84.50;;;;;;5008919;28;20040;-89
2021/01/22 04:01:03;;;;;;;2.97;2.13;;;5.40;84.40;;;;;;5007456;28;20017;-89
2021/01/22 04:03:29;;;;;;;3.95;3.17;;;5.40;84.50;;;;;;5007019;28;20064;-88
2021/01/22 04:05:59;;;;;;;3.22;2.13;;;5.30;84.50;;;;;;5006912;28;20027;-89
2021/01/22 04:08:25;;;;;;;2.35;2.15;;;5.50;84.70;;;;;;5008972;28;20014;-89
2021/01/22 04:10:51;;;;;;;1.95;1.75;;;5.30;84.60;;;;;;5013847;28;20044;-89
2021/01/22 04:13:18;;;;;;;3.65;2.38;;;5.30;84.60;;;;;;5009705;28;20030;-90
2021/01/22 04:15:44;;;;;;;2.30;2.03;;;5.30;84.70;;;;;;5013360;28;20189;-89
2021/01/22 04:18:10;;;;;;;1.88;1.50;;;5.20;84.70;;;;;;5012999;28;20516;-90
2021/01/22 04:20:35;;;;;;;2.58;2.20;;;5.30;84.70;;;;;;5006888;28;20108;-88
2021/01/22 04:23:01;;;;;;;4.05;2.10;;;5.30;84.70;;;;;;5012658;28;20026;-89
2021/01/22 04:25:26;;;;;;;2.10;1.90;;;5.40;84.80;;;;;;5009785;28;20135;-89
2021/01/22 04:27:52;;;;;;;2.45;1.92;;;5.30;84.70;;;;;;5020848;28;20048;-88
2021/01/22 04:30:18;;;;;;;2.85;1.83;;;5.30;84.70;;;;;;5023929;28;20010;-88
2021/01/22 04:32:43;;;;;;;3.60;1.80;;;5.30;84.70;;;;;;5031590;28;20014;-88
2021/01/22 04:35:13;;;;;;;3.25;2.10;;;5.40;84.70;;;;;;5020469;28;20021;-88
2021/01/22 04:37:40;;;;;;;2.42;2.00;;;5.30;84.70;;;;;;5031029;28;20013;-89
2021/01/22 04:40:10;;;;;;;2.75;2.08;;;5.30;84.80;;;;;;5024804;28;20124;-89
2021/01/22 04:42:40;;;;;;;4.35;2.00;;;5.40;84.80;;;;;;5001156;28;20025;-89
2021/01/22 04:45:08;;;;;;;3.00;2.17;;;5.40;84.80;;;;;;5011793;28;20129;-89
2021/01/22 04:47:34;;;;;;;2.65;2.03;;;5.40;84.80;;;;;;5010861;28;20032;-89
2021/01/22 04:50:02;;;;;;;2.60;1.80;;;5.30;84.80;;;;;;5013022;28;20022;-88
2021/01/22 04:52:30;;;;;;;2.50;2.15;;;5.30;84.80;;;;;;5010896;28;20026;-88
2021/01/22 04:54:57;;;;;;;2.65;1.67;;;5.40;84.80;;;;;;5008945;28;20045;-90
2021/01/22 04:57:23;;;;;;;3.58;2.17;;;5.40;84.80;;;;;;5005398;28;20040;-90
2021/01/22 04:59:50;;;;;;;3.25;2.10;;;5.40;84.80;;;;;;5000085;28;20032;-90
2021/01/22 05:02:17;;;;;;;2.60;1.80;;;5.40;84.90;;;;;;5026527;28;20029;-89
2021/01/22 05:04:43;;;;;;;3.58;2.25;;;5.40;84.90;;;;;;5017662;28;20030;-89
2021/01/22 05:07:10;;;;;;;3.08;2.15;;;5.40;84.80;;;;;;5026084;28;20372;-88
2021/01/22 05:09:37;;;;;;;3.40;2.33;;;5.40;84.80;;;;;;5011394;28;20140;-88
2021/01/22 05:12:05;;;;;;;3.05;1.98;;;5.40;84.80;;;;;;5008374;28;20149;-89
2021/01/22 05:14:33;;;;;;;2.28;2.08;;;5.40;84.90;;;;;;5009165;28;20048;-89
2021/01/22 05:17:03;;;;;;;2.67;2.40;;;5.40;84.90;;;;;;5011403;28;20017;-88
2021/01/22 05:19:29;;;;;;;2.85;2.22;;;5.50;85.00;;;;;;5010202;28;20026;-89
2021/01/22 05:21:55;;;;;;;3.03;1.95;;;5.40;84.90;;;;;;5013980;28;20485;-89
2021/01/22 05:24:24;;;;;;;4.40;3.00;;;5.40;85.00;;;;;;5008894;28;20022;-89
2021/01/22 05:30:04;;;;;;;8.90;5.07;;;5.50;85.00;;;;;;5026426;22;20051;-90
2021/01/22 05:32:31;;;;;;;6.72;5.00;;;5.40;85.00;;;;;;4994619;28;20097;-90
2021/01/22 05:34:57;;;;;;;9.15;5.28;;;5.40;85.10;;;;;;4987402;28;20022;-88
2021/01/22 05:37:24;;;;;;;9.00;5.72;;;5.40;85.20;;;;;;4994432;28;20030;-89
2021/01/22 05:40:10;;;;;;;9.73;6.07;;;5.40;85.10;;;;;;5006619;28;20039;-89
2021/01/22 05:42:49;;;;;;;5.38;4.03;;;5.40;85.20;;;;;;4985957;28;20031;-88
2021/01/22 05:45:16;;;;;;;9.82;7.20;;;5.50;85.30;;;;;;5000869;28;20523;-89
2021/01/22 05:47:42;;;;;;;7.07;5.53;;;5.40;85.30;;;;;;4994175;28;20054;-89
2021/01/22 05:50:09;;;;;;;8.18;6.00;;;5.50;85.40;;;;;;4995909;28;20034;-88
2021/01/22 05:52:35;;;;;;;8.25;5.75;;;5.50;85.30;;;;;;5007045;28;20025;-90
2021/01/22 05:55:22;;;;;;;7.80;5.68;;;5.60;85.30;;;;;;5011931;28;20034;-89
2021/01/22 05:57:51;;;;;;;9.90;7.57;;;5.50;85.30;;;;;;4996208;28;20030;-88
2021/01/22 06:00:17;;;;;;;8.57;6.30;;;5.50;85.30;;;;;;5012892;28;20034;-87
2021/01/22 06:02:42;;;;;;;8.75;6.28;;;5.50;85.20;;;;;;4998780;28;20023;-88
2021/01/22 06:05:09;;;;;;;10.00;7.72;;;5.50;85.20;;;;;;5014685;28;20030;-89
2021/01/22 06:07:37;;;;;;;8.60;5.80;;;5.50;85.30;;;;;;5010819;28;20459;-88
2021/01/22 06:10:35;;;;;;;12.13;8.35;;;5.50;85.30;;;;;;4998925;28;20027;-88
2021/01/22 06:13:02;;;;;;;10.25;6.63;;;5.50;85.30;;;;;;4985241;28;20058;-88
2021/01/22 06:15:28;;;;;;;9.80;7.85;;;5.40;85.30;;;;;;5005937;28;20018;-88
2021/01/22 06:17:55;;;;;;;10.90;7.38;;;5.40;85.40;;;;;;5046180;28;20062;-89
2021/01/22 06:20:24;;;;;;;12.00;7.82;;;5.40;85.50;;;;;;5006847;28;20042;-89
2021/01/22 06:23:12;;;;;;;10.40;6.82;;;5.40;85.50;;;;;;5016498;28;20037;-88
2021/01/22 06:25:39;;;;;;;8.82;5.97;;;5.50;85.50;;;;;;5001329;28;20030;-88
2021/01/22 06:28:11;;;;;;;16.88;13.60;;;5.50;85.40;;;;;;4986821;28;20043;-88
2021/01/22 06:30:38;;;;;;;11.98;8.80;;;5.50;85.50;;;;;;4994819;28;20629;-89
2021/01/22 06:33:06;;;;;;;12.02;9.93;;;5.40;85.50;;;;;;4991228;28;20038;-89
2021/01/22 06:35:33;;;;;;;12.35;9.30;;;5.40;85.40;;;;;;5006118;28;20085;-87
2021/01/22 06:38:01;;;;;;;10.38;7.68;;;5.40;85.40;;;;;;4991959;28;20025;-87
2021/01/22 06:40:27;;;;;;;13.45;9.27;;;5.40;85.40;;;;;;4995254;28;20022;-89
2021/01/22 06:42:54;;;;;;;8.70;7.05;;;5.50;85.40;;;;;;4987044;28;20105;-89
2021/01/22 06:45:21;;;;;;;12.27;9.23;;;5.50;85.30;;;;;;4995390;28;20038;-86
2021/01/22 06:48:15;;;;;;;15.10;10.00;;;5.50;85.40;;;;;;4987986;28;21348;-84
2021/01/22 06:50:41;;;;;;;7.65;6.20;;;5.50;85.50;;;;;;4992114;28;20630;-85
2021/01/22 06:53:12;;;;;;;9.80;7.70;;;5.50;85.40;;;;;;4986317;28;20057;-87
2021/01/22 06:55:53;;;;;;;9.82;7.28;;;5.50;85.40;;;;;;5019142;28;20435;-86
2021/01/22 06:58:29;;;;;;;10.10;7.53;;;5.50;85.40;;;;;;4986849;28;20492;-87
2021/01/22 07:01:02;;;;;;;11.60;8.30;;;5.40;85.30;;;;;;4989462;28;20093;-88
2021/01/22 07:03:36;;;;;;;8.85;6.72;;;5.40;85.40;;;;;;4986544;28;20023;-86
2021/01/22 07:06:07;;;;;;;8.20;5.78;;;5.40;85.40;;;;;;4989451;28;20437;-86
2021/01/22 07:08:55;;;;;;;11.07;8.10;;;5.50;85.30;;;;;;4985054;28;20238;-85
2021/01/22 07:11:23;;;;;;;8.43;5.47;;;5.50;85.30;;;;;;4990081;28;20913;-85
2021/01/22 07:13:49;;;;;;;13.38;9.48;;;5.50;85.20;;;;;;4981812;28;20121;-86
2021/01/22 07:16:18;;;;;;;8.48;6.03;;;5.40;85.20;;;;;;4986118;28;20069;-86
2021/01/22 07:18:51;;;;;;;12.02;7.28;;;5.40;85.30;;;;;;4986553;28;20105;-86
2021/01/22 07:21:24;;;;;;;9.55;6.70;;;5.30;85.30;;;;;;4983083;28;20050;-86
2021/01/22 07:24:02;;;;;;;13.40;10.13;;;5.30;85.30;;;;;;4987001;28;20038;-85
2021/01/22 07:26:33;;;;;;;9.95;7.95;;;5.30;85.40;;;;;;4993172;28;20122;-87
2021/01/22 07:29:15;;;;;;;10.40;8.25;;;5.30;86.00;;;;;;5026095;28;20066;-86
2021/01/22 07:31:53;;;;;;;13.13;8.02;;;5.30;85.50;;;;;;4991051;28;20035;-86
2021/01/22 07:34:41;;;;;;;11.63;8.30;;;5.30;85.50;;;;;;4991683;28;20250;-88
2021/01/22 07:37:22;;;;;;;11.18;8.10;;;5.30;85.40;;;;;;4993170;28;20097;-88
2021/01/22 07:39:50;;;;;;;12.73;7.97;;;5.20;85.40;;;;;;5023134;28;20572;-90
2021/01/22 07:42:18;;;;;;;8.82;6.35;;;5.20;85.40;;;;;;4996444;28;20121;-88
2021/01/22 07:44:47;;;;;;;9.30;6.78;;;5.20;85.50;;;;;;4995386;28;20092;-88
2021/01/22 07:47:48;;;;;;;9.45;6.32;;;5.20;85.50;;;;;;5027071;28;20041;-93
2021/01/22 07:50:21;;;;;;;11.65;8.43;;;5.20;85.50;;;;;;5015573;28;20464;-87
2021/01/22 07:52:48;;;;;;;11.98;8.05;;;5.20;86.20;;;;;;4988773;28;20369;-91
2021/01/22 07:55:26;;;;;;;8.55;6.00;;;5.10;85.50;;;;;;4992201;28;20349;-89
2021/01/22 07:58:03;;;;;;;9.23;6.60;;;5.20;85.60;;;;;;4993655;28;20086;-90
2021/01/22 08:00:48;;;;;;;8.23;6.38;;;5.30;85.60;;;;;;4999841;28;20018;-90
2021/01/22 08:07:15;;;;;;;8.15;5.38;;;5.30;85.30;;;;;;4992532;28;20038;-89
2021/01/22 08:25:12;;;;;;;10.00;6.07;;;5.30;85.50;;;;;;5405780;22;20049;-86
2021/01/22 08:31:21;;;;;;;9.07;6.13;;;5.30;85.50;;;;;;5457079;22;20795;-89
2021/01/22 10:47:43;;;;;;;9.25;4.75;;;6.50;83.70;;;;;;4889635;29;20597;-92
2021/01/22 10:55:20;;;;;;;;;;;;;;;;;;;;;
2021/01/22 11:00:34;;;;;;;;;;;;;;;;;;;;;
2021/01/22 11:24:52;;;;;;;7.40;3.63;;;6.80;82.90;;;;;;4992907;28;20558;-92
2021/01/22 11:35:27;;;;;;;5.82;3.42;;;6.90;82.50;;;;;;4996798;28;20054;-94
2021/01/22 11:37:55;;;;;;;8.73;3.88;;;7.00;82.50;;;;;;5029943;23;20046;-93
2021/01/22 11:40:21;;;;;;;6.88;3.85;;;7.00;82.30;;;;;;5010918;28;20040;-91
2021/01/22 11:42:49;;;;;;;8.77;4.32;;;7.00;82.10;;;;;;5002445;28;20026;-92
2021/01/22 11:45:16;;;;;;;5.15;3.25;;;7.10;82.10;;;;;;5015077;28;20033;-92
2021/01/22 11:47:42;;;;;;;9.68;3.60;;;7.10;82.00;;;;;;5003906;28;20021;-92
2021/01/22 11:50:08;;;;;;;5.22;2.55;;;7.10;81.90;;;;;;5024618;28;20102;-91
2021/01/22 11:52:35;;;;;;;7.55;3.72;;;7.10;81.80;;;;;;4997886;28;20041;-91
2021/01/22 11:55:00;;;;;;;7.20;3.40;;;7.10;81.80;;;;;;4997888;28;20115;-91
2021/01/22 11:57:26;;;;;;;6.10;2.92;;;7.10;81.70;;;;;;4996748;28;20041;-91
2021/01/22 11:59:55;;;;;;;5.40;2.92;;;7.10;81.60;;;;;;5015532;28;20021;-91
2021/01/22 12:02:29;;;;;;;6.88;3.35;;;7.20;81.60;;;;;;4996101;28;20026;-91
2021/01/22 12:04:54;;;;;;;6.88;3.53;;;7.20;81.50;;;;;;5016470;28;20130;-90
2021/01/22 12:07:20;;;;;;;6.07;3.03;;;7.20;81.30;;;;;;5014408;28;20054;-90
2021/01/22 12:13:15;;;;;;;6.00;3.00;;;7.30;81.00;;;;;;5008167;28;20033;-91
2021/01/22 12:15:40;;;;;;;;;;;7.50;81.10;;;;;;4999293;28;20034;-90
2021/01/22 12:18:21;;;;;;;5.97;3.22;;;7.50;80.80;;;;;;4989250;28;20275;-94
2021/01/22 12:21:14;;;;;;;6.45;3.25;;;7.40;80.70;;;;;;5005588;28;20058;-96
2021/01/22 12:30:53;;;;;;;;;;;;;;;;;;;;;
2021/01/22 12:33:43;;;;;;;6.13;2.92;;;7.50;80.10;;;;;;5011607;28;20061;-91
2021/01/22 12:36:11;;;;;;;6.38;2.70;;;7.60;79.90;;;;;;5011176;28;20061;-90
2021/01/22 12:38:52;;;;;;;10.38;3.88;;;7.70;79.90;;;;;;5030788;28;20018;-93
2021/01/22 12:41:34;;;;;;;;;;;;;;;;;;;;;
2021/01/22 12:48:04;;;;;;;7.10;2.67;;;8.80;77.40;;;;;;4999253;28;20022;-90
2021/01/22 12:50:53;;;;;;;4.68;2.53;;;9.40;76.40;;;;;;5006079;28;20121;-89
2021/01/22 12:53:23;;;;;;;4.40;2.67;;;10.20;74.60;;;;;;5004616;28;20018;-88
2021/01/22 12:56:13;;;;;;;3.25;1.88;;;9.90;74.50;;;;;;5007109;28;20110;-89
2021/01/22 12:59:10;;;;;;;7.25;2.83;;;10.20;74.10;;;;;;5020582;28;20041;-91
2021/01/22 13:02:22;;;;;;;7.28;3.13;;;10.10;73.80;;;;;;5003828;28;20069;-90
2021/01/22 13:08:42;;;;;;;;;;;;;;;;;;;;;
2021/01/22 13:14:42;;;;;;;;;;;;;;;;;;;;;
2021/01/22 14:47:07;;;;;;;5.25;2.30;;;8.10;73.70;;;;;;3526214;22;20049;-96
2021/01/22 14:50:18;;;;;;;5.85;2.00;;;8.00;73.90;;;;;;5146509;22;20052;-94
2021/01/22 14:53:12;;;;;;;4.72;1.85;;;8.00;74.10;;;;;;5020733;28;20045;-91
2021/01/22 14:58:22;;;;;;;4.60;1.98;;;7.80;74.10;;;;;;5390293;22;20053;-93
2021/01/22 15:00:47;;;;;;;3.97;1.70;;;7.90;74.30;;;;;;5270539;22;20109;31
2021/01/22 15:10:31;;;;;;;4.13;1.70;;;7.80;74.40;;;;;;5004396;28;20026;-92
2021/01/22 15:12:59;;;;;;;5.63;2.10;;;7.80;74.60;;;;;;4965596;28;20047;-96
2021/01/22 15:15:25;;;;;;;3.00;1.73;;;7.70;74.60;;;;;;4993119;28;20045;-95
2021/01/22 15:18:23;;;;;;;2.22;1.50;;;7.70;74.80;;;;;;5103296;22;20045;-95
2021/01/22 15:29:56;;;;;;;3.22;1.50;;;7.50;75.00;;;;;;4975115;28;20035;-93
2021/01/22 15:43:06;;;;;;;5.38;2.10;;;7.30;75.40;;;;;;4993180;28;20058;-94
2021/01/22 15:50:43;;;;;;;4.70;1.90;;;7.10;75.50;;;;;;5954314;22;20054;-91
2021/01/22 15:53:28;;;;;;;;;;;;;;;;;;;;;
2021/01/22 15:56:56;;;;;;;;;;;;;;;;;;;;;
2021/01/22 15:59:30;;;;;;;4.65;2.10;;;7.10;75.70;;;;;;4977854;28;20048;-90
2021/01/22 16:05:51;;;;;;;3.03;1.70;;;6.90;75.70;;;;;;4985376;28;20066;-96
2021/01/22 16:08:49;;;;;;;3.80;1.90;;;6.90;75.70;;;;;;4971994;28;20038;-96
2021/01/22 16:12:20;;;;;;;5.07;2.33;;;6.80;75.70;;;;;;4990197;28;20148;-94
2021/01/22 16:18:06;;;;;;;4.60;1.83;;;6.70;76.00;;;;;;4980821;28;20030;-91
2021/01/22 16:20:41;;;;;;;4.20;2.28;;;6.70;76.00;;;;;;5005158;28;20444;-91
2021/01/22 16:27:18;;;;;;;;;;;;;;;;;;;;;
2021/01/22 16:32:58;;;;;;;4.32;1.95;;;6.50;76.30;;;;;;4873901;29;20548;-95
2021/01/22 16:45:31;;;;;;;4.60;2.13;;;6.50;77.30;;;;;;5045999;22;20057;-95
2021/01/22 16:47:57;;;;;;;3.63;1.88;;;6.40;76.70;;;;;;5002982;28;20109;-95
2021/01/22 16:53:20;;;;;;;8.07;3.53;;;6.40;76.90;;;;;;5681042;22;20041;-91
2021/01/22 17:48:27;;;;;;;5.63;3.40;;;5.90;78.20;;;;;;5044341;22;20061;-95
2021/01/22 17:54:03;;;;;;;4.95;2.42;;;5.90;78.30;;;;;;5676523;22;20120;-93
2021/01/22 17:59:12;;;;;;;3.63;2.58;;;5.80;78.50;;;;;;5130431;22;20379;-96
2021/01/22 18:01:46;;;;;;;6.22;3.47;;;5.80;78.60;;;;;;5085257;22;20195;-93
2021/01/22 18:04:32;;;;;;;;;;;;;;;;;;;;;
2021/01/22 18:06:58;;;;;;;7.28;3.28;;;5.80;78.70;;;;;;5077576;22;20043;-94
2021/01/22 18:09:28;;;;;;;6.80;4.18;;;5.70;78.70;;;;;;5016771;28;20040;-95
2021/01/22 18:12:06;;;;;;;;;;;;;;;;;;;;;
2021/01/22 18:14:32;;;;;;;5.85;3.75;;;5.60;78.90;;;;;;5001489;28;20121;-92
2021/01/22 18:16:58;;;;;;;6.80;3.30;;;5.60;78.90;;;;;;4982165;28;20029;-90
2021/01/22 18:19:25;;;;;;;6.07;3.65;;;5.60;79.00;;;;;;4993894;28;20034;-91
2021/01/22 18:21:51;;;;;;;6.72;3.90;;;5.60;79.10;;;;;;4975954;28;20018;-89
2021/01/22 18:24:22;;;;;;;10.45;5.90;;;5.60;79.20;;;;;;4995076;28;20601;-91
2021/01/22 18:26:48;;;;;;;6.03;3.90;;;5.50;79.20;;;;;;4995642;28;20113;-90
2021/01/22 18:29:14;;;;;;;10.23;6.00;;;5.50;79.20;;;;;;4996790;28;20030;-88
2021/01/22 18:31:40;;;;;;;6.53;4.80;;;5.50;79.20;;;;;;4978100;28;20472;-88
2021/01/22 18:34:06;;;;;;;7.45;4.50;;;5.40;79.20;;;;;;4976784;28;20113;-88
2021/01/22 18:36:31;;;;;;;9.43;5.63;;;5.40;79.20;;;;;;4980210;28;20455;-87
2021/01/22 18:39:05;;;;;;;6.55;4.22;;;5.50;79.30;;;;;;5000474;28;20085;-89
2021/01/22 18:41:32;;;;;;;9.00;4.70;;;5.40;79.30;;;;;;5013203;28;20018;-89
2021/01/22 18:43:57;;;;;;;6.32;4.00;;;5.40;79.40;;;;;;4989946;28;20069;-89
2021/01/22 18:46:23;;;;;;;7.55;3.83;;;5.40;79.40;;;;;;4996633;28;20030;-90
2021/01/22 18:48:51;;;;;;;8.50;5.32;;;5.30;79.30;;;;;;4980302;28;20027;-90
2021/01/22 18:54:05;;;;;;;8.05;4.82;;;5.40;79.40;;;;;;4969835;28;20031;-91
2021/01/22 18:56:34;;;;;;;6.82;3.63;;;5.30;80.00;;;;;;4979527;28;20554;-92
2021/01/22 18:59:00;;;;;;;6.50;4.30;;;5.30;79.40;;;;;;5000125;28;20030;-91
2021/01/22 19:01:28;;;;;;;5.32;3.72;;;5.30;79.40;;;;;;4999938;28;20027;-91
2021/01/22 19:04:17;;;;;;;;;;;;;;;;;;;;;
2021/01/22 19:26:26;;;;;;;9.98;5.70;;;5.20;79.60;;;;;;6036320;22;21379;-93
2021/01/22 19:29:51;;;;;;;;;;;;;;;;;;;;;
2021/01/22 19:32:17;;;;;;;7.72;5.10;;;5.10;79.70;;;;;;5002404;28;20737;-93
2021/01/22 19:34:54;;;;;;;9.63;6.05;;;5.10;79.80;;;;;;5001680;28;20014;-94
2021/01/22 19:37:20;;;;;;;7.60;5.53;;;5.10;79.90;;;;;;5016818;28;20029;-91
2021/01/22 19:39:46;;;;;;;10.02;5.80;;;5.10;79.90;;;;;;5015841;28;20015;-95
2021/01/22 19:45:39;;;;;;;11.60;9.75;;;5.00;80.10;;;;;;5017381;28;20022;-92
2021/01/22 19:48:11;;;;;;;10.48;7.25;;;5.00;80.10;;;;;;5124924;22;20784;-92
2021/01/22 19:51:18;;;;;;;8.32;5.80;;;4.90;80.20;;;;;;5049027;28;20018;-96
2021/01/22 19:54:05;;;;;;;14.57;9.25;;;4.90;80.30;;;;;;5050218;28;20136;-93
2021/01/22 19:56:38;;;;;;;11.57;8.43;;;4.80;80.50;;;;;;5043224;28;20029;-93
2021/01/22 19:59:04;;;;;;;8.05;4.93;;;4.80;80.80;;;;;;5024750;28;20017;-90
2021/01/22 20:01:31;;;;;;;9.52;6.35;;;4.70;80.80;;;;;;5007890;28;20033;-90
2021/01/22 20:03:57;;;;;;;13.07;8.32;;;4.80;80.90;;;;;;5028633;28;20506;-90
2021/01/22 20:06:22;;;;;;;11.60;6.72;;;4.70;81.10;;;;;;5008591;28;20094;-91
2021/01/22 20:08:48;;;;;;;11.30;6.93;;;4.70;81.20;;;;;;5048654;28;20048;-92
2021/01/22 20:11:14;;;;;;;12.60;7.72;;;4.70;81.20;;;;;;5025786;28;20033;-92
2021/01/22 20:13:40;;;;;;;7.90;6.22;;;4.70;81.40;;;;;;5027760;28;20005;-91
2021/01/22 20:16:05;;;;;;;9.95;6.15;;;4.70;81.40;;;;;;5010745;28;20120;-90
2021/01/22 20:18:31;;;;;;;12.13;7.10;;;4.70;81.50;;;;;;5006704;28;20017;-90
2021/01/22 20:20:56;;;;;;;9.32;6.40;;;4.70;81.50;;;;;;5005887;28;20021;-89
2021/01/22 20:23:31;;;;;;;8.55;6.30;;;4.70;81.50;;;;;;5009281;28;20030;-91
2021/01/22 20:25:59;;;;;;;12.05;7.28;;;4.70;81.60;;;;;;5009144;28;20038;-93
2021/01/22 20:28:27;;;;;;;10.88;7.15;;;4.70;81.60;;;;;;5018199;28;20120;-96
2021/01/22 20:31:06;;;;;;;7.38;4.35;;;4.60;81.60;;;;;;5047809;28;20599;-91
2021/01/22 20:33:35;;;;;;;9.55;6.50;;;4.60;81.60;;;;;;5030599;28;20018;-91
2021/01/22 20:36:01;;;;;;;8.15;4.72;;;4.60;81.60;;;;;;5005145;28;20022;-91
2021/01/22 20:38:33;;;;;;;8.07;5.90;;;4.60;81.70;;;;;;5036310;28;20449;-92
2021/01/22 20:40:59;;;;;;;13.27;8.00;;;4.60;81.70;;;;;;5032953;28;20017;-92
2021/01/22 20:43:24;;;;;;;9.98;7.32;;;4.60;81.70;;;;;;5011719;28;20029;-89
2021/01/22 20:45:50;;;;;;;10.20;6.95;;;4.50;81.80;;;;;;5021752;28;20120;-91
2021/01/22 20:48:16;;;;;;;8.75;6.20;;;4.50;81.90;;;;;;5023289;28;20463;-89
2021/01/22 20:50:42;;;;;;;10.60;7.20;;;4.60;82.10;;;;;;5043977;28;20056;-91
2021/01/22 20:53:10;;;;;;;14.02;7.70;;;4.50;82.00;;;;;;5022689;28;20032;-91
2021/01/22 20:55:36;;;;;;;15.63;8.65;;;4.40;81.90;;;;;;5020851;28;20491;-89
2021/01/22 20:58:29;;;;;;;15.23;9.43;;;4.40;82.00;;;;;;5040289;28;20025;-89
2021/01/22 21:01:07;;;;;;;10.23;6.88;;;4.40;82.20;;;;;;5023150;28;20025;-89
2021/01/22 21:03:34;;;;;;;15.45;9.77;;;4.40;82.20;;;;;;5030347;28;20029;-91
2021/01/22 21:06:00;;;;;;;10.75;7.82;;;4.40;82.20;;;;;;5041415;28;20088;-88